sensor_id;sensor_type;location;lat;lon;timestamp;pressure;altitude;pressure_sealevel;temperature;humidity
9439;BME280;5176;42.622;25.386;2023-08-30T00:01:33;96214.31;;;24.58;64.12
9439;BME280;5176;42.622;25.386;2023-08-30T00:04:01;96211.25;;;24.55;64.46
9439;BME280;5176;42.622;25.386;2023-08-30T00:06:28;96208.16;;;24.51;64.96
9439;BME280;5176;42.622;25.386;2023-08-30T00:08:57;96213.75;;;24.50;64.84
9439;BME280;5176;42.622;25.386;2023-08-30T00:11:24;96218.28;;;24.42;64.12
9439;BME280;5176;42.622;25.386;2023-08-30T00:13:51;96223.66;;;24.42;64.40
9439;BME280;5176;42.622;25.386;2023-08-30T00:16:19;96224.47;;;24.36;64.98
9439;BME280;5176;42.622;25.386;2023-08-30T00:18:46;96226.94;;;24.18;65.64
9439;BME280;5176;42.622;25.386;2023-08-30T00:21:13;96233.13;;;24.05;66.78
9439;BME280;5176;42.622;25.386;2023-08-30T00:23:42;96234.75;;;24.00;67.39
9439;BME280;5176;42.622;25.386;2023-08-30T00:26:11;96234.16;;;23.98;67.20
9439;BME280;5176;42.622;25.386;2023-08-30T00:28:38;96232.72;;;23.95;67.87
9439;BME280;5176;42.622;25.386;2023-08-30T00:31:05;96226.94;;;23.85;68.79
9439;BME280;5176;42.622;25.386;2023-08-30T00:33:32;96231.47;;;23.71;68.91
9439;BME280;5176;42.622;25.386;2023-08-30T00:36:00;96229.38;;;23.67;69.21
9439;BME280;5176;42.622;25.386;2023-08-30T00:38:28;96229.81;;;23.63;69.51
9439;BME280;5176;42.622;25.386;2023-08-30T00:40:55;96223.22;;;23.66;69.83
9439;BME280;5176;42.622;25.386;2023-08-30T00:43:23;96219.13;;;23.70;69.90
9439;BME280;5176;42.622;25.386;2023-08-30T00:45:51;96222.63;;;23.71;69.53
9439;BME280;5176;42.622;25.386;2023-08-30T00:48:19;96217.69;;;23.68;69.49
9439;BME280;5176;42.622;25.386;2023-08-30T00:50:47;96203.84;;;23.57;69.61
9439;BME280;5176;42.622;25.386;2023-08-30T00:53:14;96203.28;;;23.62;69.23
9439;BME280;5176;42.622;25.386;2023-08-30T00:55:42;96200.78;;;23.67;68.66
9439;BME280;5176;42.622;25.386;2023-08-30T00:58:09;96195.88;;;23.71;69.19
9439;BME280;5176;42.622;25.386;2023-08-30T01:00:39;96204.09;;;23.69;69.75
9439;BME280;5176;42.622;25.386;2023-08-30T01:03:06;96198.06;;;23.60;70.05
9439;BME280;5176;42.622;25.386;2023-08-30T01:05:34;96197.06;;;23.55;70.34
9439;BME280;5176;42.622;25.386;2023-08-30T01:08:01;96199.56;;;23.63;69.61
9439;BME280;5176;42.622;25.386;2023-08-30T01:10:38;96212.53;;;23.66;69.93
9439;BME280;5176;42.622;25.386;2023-08-30T01:13:09;96200.59;;;23.62;70.52
9439;BME280;5176;42.622;25.386;2023-08-30T01:15:42;96206.09;;;23.60;70.27
9439;BME280;5176;42.622;25.386;2023-08-30T01:18:11;96208.63;;;23.62;69.40
9439;BME280;5176;42.622;25.386;2023-08-30T01:20:39;96214.16;;;23.67;69.63
9439;BME280;5176;42.622;25.386;2023-08-30T01:23:18;96211.91;;;23.64;70.04
9439;BME280;5176;42.622;25.386;2023-08-30T01:25:55;96216.66;;;23.62;69.55
9439;BME280;5176;42.622;25.386;2023-08-30T01:28:28;96210.47;;;23.61;70.26
9439;BME280;5176;42.622;25.386;2023-08-30T01:30:57;96214.75;;;23.56;70.58
9439;BME280;5176;42.622;25.386;2023-08-30T01:33:26;96216.19;;;23.58;70.62
9439;BME280;5176;42.622;25.386;2023-08-30T01:35:55;96219.69;;;23.59;70.56
9439;BME280;5176;42.622;25.386;2023-08-30T01:38:25;96224.00;;;23.60;71.19
9439;BME280;5176;42.622;25.386;2023-08-30T01:40:55;96215.56;;;23.56;72.80
9439;BME280;5176;42.622;25.386;2023-08-30T01:43:25;96218.44;;;23.48;74.18
9439;BME280;5176;42.622;25.386;2023-08-30T01:45:55;96221.94;;;23.42;74.52
9439;BME280;5176;42.622;25.386;2023-08-30T01:48:24;96221.94;;;23.42;73.72
9439;BME280;5176;42.622;25.386;2023-08-30T01:50:51;96217.19;;;23.44;73.99
9439;BME280;5176;42.622;25.386;2023-08-30T01:53:21;96225.22;;;23.37;74.53
9439;BME280;5176;42.622;25.386;2023-08-30T01:55:49;96226.03;;;23.38;73.72
9439;BME280;5176;42.622;25.386;2023-08-30T01:58:16;96221.72;;;23.44;73.11
9439;BME280;5176;42.622;25.386;2023-08-30T02:00:45;96225.44;;;23.49;72.26
9439;BME280;5176;42.622;25.386;2023-08-30T02:03:13;96216.59;;;23.49;71.74
9439;BME280;5176;42.622;25.386;2023-08-30T02:05:49;96231.63;;;23.56;72.23
9439;BME280;5176;42.622;25.386;2023-08-30T02:08:20;96232.84;;;23.60;72.31
9439;BME280;5176;42.622;25.386;2023-08-30T02:10:53;96205.88;;;23.42;72.04
9439;BME280;5176;42.622;25.386;2023-08-30T02:13:25;96229.75;;;23.50;73.21
9439;BME280;5176;42.622;25.386;2023-08-30T02:15:56;96233.69;;;23.48;72.83
9439;BME280;5176;42.622;25.386;2023-08-30T02:18:26;96231.19;;;23.46;72.92
9439;BME280;5176;42.622;25.386;2023-08-30T02:20:53;96232.22;;;23.45;72.51
9439;BME280;5176;42.622;25.386;2023-08-30T02:23:23;96230.38;;;23.46;72.15
9439;BME280;5176;42.622;25.386;2023-08-30T02:25:50;96231.00;;;23.48;72.63
9439;BME280;5176;42.622;25.386;2023-08-30T02:28:18;96208.31;;;23.24;73.08
9439;BME280;5176;42.622;25.386;2023-08-30T02:30:45;96224.34;;;23.24;73.41
9439;BME280;5176;42.622;25.386;2023-08-30T02:33:13;96229.09;;;23.22;74.27
9439;BME280;5176;42.622;25.386;2023-08-30T02:35:41;96232.78;;;23.14;74.86
9439;BME280;5176;42.622;25.386;2023-08-30T02:38:08;96228.41;;;23.06;74.88
9439;BME280;5176;42.622;25.386;2023-08-30T02:40:35;96228.59;;;23.05;75.29
9439;BME280;5176;42.622;25.386;2023-08-30T02:43:03;96224.72;;;23.07;74.82
9439;BME280;5176;42.622;25.386;2023-08-30T02:45:30;96226.56;;;23.07;74.59
9439;BME280;5176;42.622;25.386;2023-08-30T02:47:57;96220.56;;;22.98;75.77
9439;BME280;5176;42.622;25.386;2023-08-30T02:50:26;96215.00;;;22.93;76.39
9439;BME280;5176;42.622;25.386;2023-08-30T02:52:53;96213.34;;;22.92;76.73
9439;BME280;5176;42.622;25.386;2023-08-30T02:55:21;96201.84;;;22.92;76.72
9439;BME280;5176;42.622;25.386;2023-08-30T02:57:48;96200.81;;;22.93;76.44
9439;BME280;5176;42.622;25.386;2023-08-30T03:00:16;96204.59;;;22.70;77.49
9439;BME280;5176;42.622;25.386;2023-08-30T03:02:43;96209.94;;;22.70;77.77
9439;BME280;5176;42.622;25.386;2023-08-30T03:05:10;96210.75;;;22.71;77.62
9439;BME280;5176;42.622;25.386;2023-08-30T03:07:39;96206.84;;;22.73;77.34
9439;BME280;5176;42.622;25.386;2023-08-30T03:10:07;96204.41;;;22.72;77.71
9439;BME280;5176;42.622;25.386;2023-08-30T03:12:34;96206.00;;;22.66;78.67
9439;BME280;5176;42.622;25.386;2023-08-30T03:15:01;96207.00;;;22.58;79.16
9439;BME280;5176;42.622;25.386;2023-08-30T03:17:30;96205.16;;;22.59;78.78
9439;BME280;5176;42.622;25.386;2023-08-30T03:19:57;96201.06;;;22.63;78.64
9439;BME280;5176;42.622;25.386;2023-08-30T03:22:24;96208.88;;;22.65;79.03
9439;BME280;5176;42.622;25.386;2023-08-30T03:24:53;96203.75;;;22.63;79.45
9439;BME280;5176;42.622;25.386;2023-08-30T03:27:20;96202.09;;;22.62;79.17
9439;BME280;5176;42.622;25.386;2023-08-30T03:29:48;96150.19;;;22.30;79.04
9439;BME280;5176;42.622;25.386;2023-08-30T03:32:16;96194.25;;;22.54;79.43
9439;BME280;5176;42.622;25.386;2023-08-30T03:34:44;96193.81;;;22.50;79.06
9439;BME280;5176;42.622;25.386;2023-08-30T03:37:12;96178.75;;;22.36;79.38
9439;BME280;5176;42.622;25.386;2023-08-30T03:39:39;96201.63;;;22.52;78.94
9439;BME280;5176;42.622;25.386;2023-08-30T03:42:08;96202.66;;;22.51;78.83
9439;BME280;5176;42.622;25.386;2023-08-30T03:44:37;96212.72;;;22.49;78.44
9439;BME280;5176;42.622;25.386;2023-08-30T03:47:05;96209.59;;;22.45;78.46
9439;BME280;5176;42.622;25.386;2023-08-30T03:49:33;96204.88;;;22.41;78.52
9439;BME280;5176;42.622;25.386;2023-08-30T03:52:00;96209.75;;;22.37;78.20
9439;BME280;5176;42.622;25.386;2023-08-30T03:54:27;96212.03;;;22.34;78.80
9439;BME280;5176;42.622;25.386;2023-08-30T03:56:54;96213.41;;;22.29;80.02
9439;BME280;5176;42.622;25.386;2023-08-30T03:59:23;96217.44;;;22.19;79.98
9439;BME280;5176;42.622;25.386;2023-08-30T04:01:52;96214.56;;;22.14;80.30
9439;BME280;5176;42.622;25.386;2023-08-30T04:04:20;96223.59;;;22.19;80.25
9439;BME280;5176;42.622;25.386;2023-08-30T04:06:47;96233.47;;;22.19;80.22
9439;BME280;5176;42.622;25.386;2023-08-30T04:09:14;96228.56;;;22.22;80.01
9439;BME280;5176;42.622;25.386;2023-08-30T04:11:41;96238.63;;;22.20;80.17
9439;BME280;5176;42.622;25.386;2023-08-30T04:14:09;96234.53;;;22.24;80.40
9439;BME280;5176;42.622;25.386;2023-08-30T04:16:37;96232.88;;;22.23;80.45
9439;BME280;5176;42.622;25.386;2023-08-30T04:19:05;96237.41;;;22.23;80.43
9439;BME280;5176;42.622;25.386;2023-08-30T04:21:32;96239.25;;;22.22;80.83
9439;BME280;5176;42.622;25.386;2023-08-30T04:23:59;96240.91;;;22.23;81.08
9439;BME280;5176;42.622;25.386;2023-08-30T04:26:27;96232.25;;;22.21;82.15
9439;BME280;5176;42.622;25.386;2023-08-30T04:28:54;96243.31;;;22.18;82.07
9439;BME280;5176;42.622;25.386;2023-08-30T04:31:21;96251.13;;;22.20;81.63
9439;BME280;5176;42.622;25.386;2023-08-30T04:33:50;96253.41;;;22.23;81.92
9439;BME280;5176;42.622;25.386;2023-08-30T04:36:21;96251.38;;;22.25;82.43
9439;BME280;5176;42.622;25.386;2023-08-30T04:38:48;96255.69;;;22.26;82.80
9439;BME280;5176;42.622;25.386;2023-08-30T04:41:15;96209.41;;;21.91;82.72
9439;BME280;5176;42.622;25.386;2023-08-30T04:43:42;96259.16;;;22.26;82.55
9439;BME280;5176;42.622;25.386;2023-08-30T04:46:09;96265.16;;;22.28;82.96
9439;BME280;5176;42.622;25.386;2023-08-30T04:48:37;96263.94;;;22.31;82.44
9439;BME280;5176;42.622;25.386;2023-08-30T04:51:05;96262.34;;;22.37;83.08
9439;BME280;5176;42.622;25.386;2023-08-30T04:53:32;96260.13;;;22.40;83.55
9439;BME280;5176;42.622;25.386;2023-08-30T04:56:00;96260.75;;;22.42;82.67
9439;BME280;5176;42.622;25.386;2023-08-30T04:58:27;96262.78;;;22.40;82.65
9439;BME280;5176;42.622;25.386;2023-08-30T05:00:56;96251.09;;;22.41;81.94
9439;BME280;5176;42.622;25.386;2023-08-30T05:03:23;96265.34;;;22.55;81.61
9439;BME280;5176;42.622;25.386;2023-08-30T05:05:50;96258.00;;;22.64;81.33
9439;BME280;5176;42.622;25.386;2023-08-30T05:08:19;96259.91;;;22.76;81.09
9439;BME280;5176;42.622;25.386;2023-08-30T05:10:46;96262.22;;;22.86;80.52
9439;BME280;5176;42.622;25.386;2023-08-30T05:13:15;96250.34;;;22.89;80.86
9439;BME280;5176;42.622;25.386;2023-08-30T05:15:42;96258.59;;;23.00;80.06
9439;BME280;5176;42.622;25.386;2023-08-30T05:18:09;96264.81;;;23.07;80.17
9439;BME280;5176;42.622;25.386;2023-08-30T05:20:37;96261.75;;;23.17;79.35
9439;BME280;5176;42.622;25.386;2023-08-30T05:23:04;96270.25;;;23.27;78.02
9439;BME280;5176;42.622;25.386;2023-08-30T05:25:33;96268.19;;;23.36;76.66
9439;BME280;5176;42.622;25.386;2023-08-30T05:28:00;96272.31;;;23.38;77.33
9439;BME280;5176;42.622;25.386;2023-08-30T05:30:28;96270.69;;;23.44;77.76
9439;BME280;5176;42.622;25.386;2023-08-30T05:32:55;96271.53;;;23.51;77.25
9439;BME280;5176;42.622;25.386;2023-08-30T05:35:23;96278.19;;;23.62;76.44
9439;BME280;5176;42.622;25.386;2023-08-30T05:37:50;96272.41;;;23.72;75.28
9439;BME280;5176;42.622;25.386;2023-08-30T05:40:18;96281.06;;;23.80;74.64
9439;BME280;5176;42.622;25.386;2023-08-30T05:42:46;96272.88;;;23.88;74.43
9439;BME280;5176;42.622;25.386;2023-08-30T05:45:14;96271.84;;;23.96;74.67
9439;BME280;5176;42.622;25.386;2023-08-30T05:47:42;96278.41;;;24.00;73.96
9439;BME280;5176;42.622;25.386;2023-08-30T05:50:09;96275.72;;;24.07;73.54
9439;BME280;5176;42.622;25.386;2023-08-30T05:52:36;96261.94;;;24.10;73.06
9439;BME280;5176;42.622;25.386;2023-08-30T05:55:07;96269.56;;;24.19;72.28
9439;BME280;5176;42.622;25.386;2023-08-30T05:57:35;96261.75;;;24.25;71.26
9439;BME280;5176;42.622;25.386;2023-08-30T06:00:04;96264.66;;;24.36;72.61
9439;BME280;5176;42.622;25.386;2023-08-30T06:02:33;96267.09;;;24.44;71.61
9439;BME280;5176;42.622;25.386;2023-08-30T06:05:00;96271.19;;;24.54;70.28
9439;BME280;5176;42.622;25.386;2023-08-30T06:07:28;96266.03;;;24.65;70.99
9439;BME280;5176;42.622;25.386;2023-08-30T06:09:55;96263.53;;;24.77;69.94
9439;BME280;5176;42.622;25.386;2023-08-30T06:12:22;96270.72;;;24.90;68.51
9439;BME280;5176;42.622;25.386;2023-08-30T06:14:51;96266.38;;;24.95;67.08
9439;BME280;5176;42.622;25.386;2023-08-30T06:17:20;96272.72;;;25.08;66.22
9439;BME280;5176;42.622;25.386;2023-08-30T06:19:47;96276.84;;;25.17;66.58
9439;BME280;5176;42.622;25.386;2023-08-30T06:22:14;96288.75;;;25.27;66.75
9439;BME280;5176;42.622;25.386;2023-08-30T06:24:42;96281.47;;;25.41;65.07
9439;BME280;5176;42.622;25.386;2023-08-30T06:27:09;96290.91;;;25.50;63.25
9439;BME280;5176;42.622;25.386;2023-08-30T06:29:36;96286.72;;;25.61;61.80
9439;BME280;5176;42.622;25.386;2023-08-30T06:32:04;96293.72;;;25.69;62.74
9439;BME280;5176;42.622;25.386;2023-08-30T06:34:33;96290.34;;;25.80;61.73
9439;BME280;5176;42.622;25.386;2023-08-30T06:37:00;96289.88;;;25.90;61.72
9439;BME280;5176;42.622;25.386;2023-08-30T06:39:32;96283.19;;;25.99;61.93
9439;BME280;5176;42.622;25.386;2023-08-30T06:42:00;96276.97;;;26.05;61.20
9439;BME280;5176;42.622;25.386;2023-08-30T06:44:28;96282.81;;;26.20;60.30
9439;BME280;5176;42.622;25.386;2023-08-30T06:46:56;96267.94;;;26.24;59.83
9439;BME280;5176;42.622;25.386;2023-08-30T06:49:23;96280.63;;;26.42;59.23
9439;BME280;5176;42.622;25.386;2023-08-30T06:51:52;96287.53;;;26.56;58.50
9439;BME280;5176;42.622;25.386;2023-08-30T06:54:19;96282.28;;;26.61;58.80
9439;BME280;5176;42.622;25.386;2023-08-30T06:56:57;96290.06;;;26.70;57.92
9439;BME280;5176;42.622;25.386;2023-08-30T06:59:25;96288.72;;;26.79;58.16
9439;BME280;5176;42.622;25.386;2023-08-30T07:01:53;96296.13;;;26.83;56.96
9439;BME280;5176;42.622;25.386;2023-08-30T07:04:20;96291.50;;;26.91;58.30
9439;BME280;5176;42.622;25.386;2023-08-30T07:06:47;96293.06;;;26.98;57.76
9439;BME280;5176;42.622;25.386;2023-08-30T07:09:16;96297.38;;;27.06;57.26
9439;BME280;5176;42.622;25.386;2023-08-30T07:11:43;96297.69;;;27.16;57.58
9439;BME280;5176;42.622;25.386;2023-08-30T07:14:14;96301.09;;;27.23;57.24
9439;BME280;5176;42.622;25.386;2023-08-30T07:16:41;96298.09;;;27.31;56.93
9439;BME280;5176;42.622;25.386;2023-08-30T07:19:08;96301.16;;;27.35;55.65
9439;BME280;5176;42.622;25.386;2023-08-30T07:21:36;96298.16;;;27.43;56.15
9439;BME280;5176;42.622;25.386;2023-08-30T07:24:06;96303.47;;;27.50;54.97
9439;BME280;5176;42.622;25.386;2023-08-30T07:26:35;96302.56;;;27.56;55.53
9439;BME280;5176;42.622;25.386;2023-08-30T07:29:03;96307.84;;;27.62;54.64
9439;BME280;5176;42.622;25.386;2023-08-30T07:31:31;96308.97;;;27.73;53.88
9439;BME280;5176;42.622;25.386;2023-08-30T07:33:59;96313.28;;;27.74;53.94
9439;BME280;5176;42.622;25.386;2023-08-30T07:36:26;96313.34;;;27.67;54.69
9439;BME280;5176;42.622;25.386;2023-08-30T07:38:56;96286.13;;;27.46;54.72
9439;BME280;5176;42.622;25.386;2023-08-30T07:41:24;96309.44;;;27.52;56.15
9439;BME280;5176;42.622;25.386;2023-08-30T07:43:53;96305.09;;;27.51;54.58
9439;BME280;5176;42.622;25.386;2023-08-30T07:46:20;96303.47;;;27.50;54.88
9439;BME280;5176;42.622;25.386;2023-08-30T07:48:47;96306.97;;;27.50;54.91
9439;BME280;5176;42.622;25.386;2023-08-30T07:51:15;96301.75;;;27.55;56.15
9439;BME280;5176;42.622;25.386;2023-08-30T07:53:42;96307.56;;;27.71;56.62
9439;BME280;5176;42.622;25.386;2023-08-30T07:56:09;96307.97;;;27.86;53.82
9439;BME280;5176;42.622;25.386;2023-08-30T07:58:37;96306.94;;;27.99;54.33
9439;BME280;5176;42.622;25.386;2023-08-30T08:01:06;96314.44;;;28.08;54.44
9439;BME280;5176;42.622;25.386;2023-08-30T08:03:33;96300.97;;;28.08;53.75
9439;BME280;5176;42.622;25.386;2023-08-30T08:06:00;96299.13;;;28.09;53.48
9439;BME280;5176;42.622;25.386;2023-08-30T08:08:28;96298.91;;;28.22;54.17
9439;BME280;5176;42.622;25.386;2023-08-30T08:10:55;96294.63;;;28.33;53.48
9439;BME280;5176;42.622;25.386;2023-08-30T08:13:22;96291.38;;;28.42;53.16
9439;BME280;5176;42.622;25.386;2023-08-30T08:15:50;96285.75;;;28.56;52.95
9439;BME280;5176;42.622;25.386;2023-08-30T08:18:18;96289.03;;;28.69;52.67
9439;BME280;5176;42.622;25.386;2023-08-30T08:20:46;96282.09;;;28.85;51.27
9439;BME280;5176;42.622;25.386;2023-08-30T08:23:13;96276.81;;;28.78;50.34
9439;BME280;5176;42.622;25.386;2023-08-30T08:25:41;96284.78;;;28.85;51.57
9439;BME280;5176;42.622;25.386;2023-08-30T08:28:08;96295.69;;;29.02;51.30
9439;BME280;5176;42.622;25.386;2023-08-30T08:30:36;96291.56;;;29.23;51.42
9439;BME280;5176;42.622;25.386;2023-08-30T08:33:04;96291.06;;;29.38;51.62
9439;BME280;5176;42.622;25.386;2023-08-30T08:35:33;96289.25;;;29.55;51.75
9439;BME280;5176;42.622;25.386;2023-08-30T08:38:00;96298.81;;;29.74;49.45
9439;BME280;5176;42.622;25.386;2023-08-30T08:40:28;96289.00;;;29.85;49.91
9439;BME280;5176;42.622;25.386;2023-08-30T08:42:56;96294.59;;;29.95;49.22
9439;BME280;5176;42.622;25.386;2023-08-30T08:45:24;96291.25;;;30.05;50.09
9439;BME280;5176;42.622;25.386;2023-08-30T08:47:52;96287.44;;;30.18;49.88
9439;BME280;5176;42.622;25.386;2023-08-30T08:50:19;96293.84;;;30.28;48.65
9439;BME280;5176;42.622;25.386;2023-08-30T08:52:49;96282.38;;;30.38;48.70
9439;BME280;5176;42.622;25.386;2023-08-30T08:55:17;96286.28;;;30.47;48.23
9439;BME280;5176;42.622;25.386;2023-08-30T08:57:45;96273.44;;;30.54;48.38
9439;BME280;5176;42.622;25.386;2023-08-30T09:00:14;96282.84;;;30.69;48.69
9439;BME280;5176;42.622;25.386;2023-08-30T09:02:42;96278.69;;;30.78;46.75
9439;BME280;5176;42.622;25.386;2023-08-30T09:05:10;96267.09;;;30.82;46.66
9439;BME280;5176;42.622;25.386;2023-08-30T09:07:38;96275.09;;;30.94;46.85
9439;BME280;5176;42.622;25.386;2023-08-30T09:10:08;96269.03;;;31.04;47.15
9439;BME280;5176;42.622;25.386;2023-08-30T09:12:36;96268.06;;;31.15;47.21
9439;BME280;5176;42.622;25.386;2023-08-30T09:15:04;96263.66;;;31.26;45.23
9439;BME280;5176;42.622;25.386;2023-08-30T09:17:35;96263.53;;;31.37;46.26
9439;BME280;5176;42.622;25.386;2023-08-30T09:20:08;96268.97;;;31.42;46.50
9439;BME280;5176;42.622;25.386;2023-08-30T09:22:36;96265.03;;;31.50;45.66
9439;BME280;5176;42.622;25.386;2023-08-30T09:25:05;96261.84;;;31.58;45.63
9439;BME280;5176;42.622;25.386;2023-08-30T09:27:34;96258.88;;;31.60;45.50
9439;BME280;5176;42.622;25.386;2023-08-30T09:30:04;96256.53;;;31.68;45.52
9439;BME280;5176;42.622;25.386;2023-08-30T09:32:39;96257.22;;;31.81;45.31
9439;BME280;5176;42.622;25.386;2023-08-30T09:35:08;96248.19;;;31.97;44.36
9439;BME280;5176;42.622;25.386;2023-08-30T09:37:36;96252.59;;;32.08;44.64
9439;BME280;5176;42.622;25.386;2023-08-30T09:40:04;96248.09;;;32.19;44.71
9439;BME280;5176;42.622;25.386;2023-08-30T09:42:32;96247.81;;;32.20;44.11
9439;BME280;5176;42.622;25.386;2023-08-30T09:45:01;96244.09;;;32.26;44.22
9439;BME280;5176;42.622;25.386;2023-08-30T09:47:29;96253.91;;;32.33;44.09
9439;BME280;5176;42.622;25.386;2023-08-30T09:49:58;96253.44;;;32.41;43.95
9439;BME280;5176;42.622;25.386;2023-08-30T09:52:30;96245.63;;;32.49;43.60
9439;BME280;5176;42.622;25.386;2023-08-30T09:54:58;96241.88;;;32.56;43.22
9439;BME280;5176;42.622;25.386;2023-08-30T09:57:27;96240.31;;;32.65;43.24
9439;BME280;5176;42.622;25.386;2023-08-30T09:59:55;96233.22;;;32.59;43.15
9439;BME280;5176;42.622;25.386;2023-08-30T10:02:25;96241.63;;;32.62;42.96
9439;BME280;5176;42.622;25.386;2023-08-30T10:04:53;96245.50;;;32.71;43.29
9439;BME280;5176;42.622;25.386;2023-08-30T10:07:21;96241.72;;;32.72;42.66
9439;BME280;5176;42.622;25.386;2023-08-30T10:09:50;96233.84;;;32.76;42.89
9439;BME280;5176;42.622;25.386;2023-08-30T10:12:20;96238.97;;;32.67;41.56
9439;BME280;5176;42.622;25.386;2023-08-30T10:14:48;96238.38;;;32.60;42.49
9439;BME280;5176;42.622;25.386;2023-08-30T10:17:18;96231.03;;;32.56;42.36
9439;BME280;5176;42.622;25.386;2023-08-30T10:19:49;96224.00;;;32.60;41.58
9439;BME280;5176;42.622;25.386;2023-08-30T10:22:18;96213.38;;;32.53;41.46
9439;BME280;5176;42.622;25.386;2023-08-30T10:24:59;96217.38;;;32.40;41.03
9439;BME280;5176;42.622;25.386;2023-08-30T10:27:29;96224.91;;;32.33;41.56
9439;BME280;5176;42.622;25.386;2023-08-30T10:29:59;96210.00;;;32.36;41.94
9439;BME280;5176;42.622;25.386;2023-08-30T10:32:28;96221.31;;;32.27;41.69
9439;BME280;5176;42.622;25.386;2023-08-30T10:35:01;96209.88;;;32.20;42.31
9439;BME280;5176;42.622;25.386;2023-08-30T10:37:30;96202.34;;;32.27;42.15
9439;BME280;5176;42.622;25.386;2023-08-30T10:40:00;96201.31;;;32.34;42.02
9439;BME280;5176;42.622;25.386;2023-08-30T10:42:29;96194.00;;;32.34;41.98
9439;BME280;5176;42.622;25.386;2023-08-30T10:44:58;96202.75;;;32.46;40.55
9439;BME280;5176;42.622;25.386;2023-08-30T10:47:27;96187.94;;;32.59;40.13
9439;BME280;5176;42.622;25.386;2023-08-30T10:49:57;96190.19;;;32.77;39.90
9439;BME280;5176;42.622;25.386;2023-08-30T10:52:26;96188.09;;;32.90;40.22
9439;BME280;5176;42.622;25.386;2023-08-30T10:55:04;96197.41;;;33.04;39.76
9439;BME280;5176;42.622;25.386;2023-08-30T10:57:32;96190.63;;;33.12;39.56
9439;BME280;5176;42.622;25.386;2023-08-30T11:00:08;96199.63;;;33.17;39.26
9439;BME280;5176;42.622;25.386;2023-08-30T11:02:36;96193.69;;;33.30;39.32
9439;BME280;5176;42.622;25.386;2023-08-30T11:05:08;96181.72;;;33.37;38.51
9439;BME280;5176;42.622;25.386;2023-08-30T11:07:36;96192.91;;;33.40;39.21
9439;BME280;5176;42.622;25.386;2023-08-30T11:10:05;96183.44;;;33.48;38.42
9439;BME280;5176;42.622;25.386;2023-08-30T11:12:33;96181.25;;;33.55;38.53
9439;BME280;5176;42.622;25.386;2023-08-30T11:15:01;96178.03;;;33.58;37.79
9439;BME280;5176;42.622;25.386;2023-08-30T11:17:29;96178.28;;;33.51;38.02
9439;BME280;5176;42.622;25.386;2023-08-30T11:20:08;96181.78;;;33.57;38.08
9439;BME280;5176;42.622;25.386;2023-08-30T11:22:39;96173.38;;;33.64;38.53
9439;BME280;5176;42.622;25.386;2023-08-30T11:25:08;96180.75;;;33.68;38.55
9439;BME280;5176;42.622;25.386;2023-08-30T11:27:36;96175.84;;;33.70;37.80
9439;BME280;5176;42.622;25.386;2023-08-30T11:30:05;96162.53;;;33.74;37.90
9439;BME280;5176;42.622;25.386;2023-08-30T11:32:32;96171.50;;;33.69;38.13
9439;BME280;5176;42.622;25.386;2023-08-30T11:35:01;96166.59;;;33.61;37.76
9439;BME280;5176;42.622;25.386;2023-08-30T11:37:30;96143.50;;;33.48;38.56
9439;BME280;5176;42.622;25.386;2023-08-30T11:39:58;96162.28;;;33.65;38.71
9439;BME280;5176;42.622;25.386;2023-08-30T11:42:26;96156.28;;;33.58;38.33
9439;BME280;5176;42.622;25.386;2023-08-30T11:44:53;96151.38;;;33.40;39.08
9439;BME280;5176;42.622;25.386;2023-08-30T11:47:23;96147.22;;;33.27;37.74
9439;BME280;5176;42.622;25.386;2023-08-30T11:49:52;96155.91;;;33.29;37.36
9439;BME280;5176;42.622;25.386;2023-08-30T11:52:21;96154.59;;;33.31;37.00
9439;BME280;5176;42.622;25.386;2023-08-30T11:54:50;96155.34;;;33.22;37.19
9439;BME280;5176;42.622;25.386;2023-08-30T11:57:19;96152.38;;;33.18;37.42
9439;BME280;5176;42.622;25.386;2023-08-30T11:59:47;96154.25;;;33.13;37.32
9439;BME280;5176;42.622;25.386;2023-08-30T12:02:16;96144.19;;;32.98;36.95
9439;BME280;5176;42.622;25.386;2023-08-30T12:04:45;96140.00;;;32.80;37.04
9439;BME280;5176;42.622;25.386;2023-08-30T12:07:21;96144.06;;;32.77;37.77
9439;BME280;5176;42.622;25.386;2023-08-30T12:09:51;96141.69;;;32.86;37.48
9439;BME280;5176;42.622;25.386;2023-08-30T12:12:18;96133.31;;;32.98;37.54
9439;BME280;5176;42.622;25.386;2023-08-30T12:14:54;96131.94;;;32.95;36.96
9439;BME280;5176;42.622;25.386;2023-08-30T12:17:22;96125.19;;;32.98;37.98
9439;BME280;5176;42.622;25.386;2023-08-30T12:19:55;96135.78;;;33.15;37.24
9439;BME280;5176;42.622;25.386;2023-08-30T12:22:23;96138.81;;;33.18;37.71
9439;BME280;5176;42.622;25.386;2023-08-30T12:24:51;96130.09;;;33.16;37.66
9439;BME280;5176;42.622;25.386;2023-08-30T12:27:19;96128.16;;;33.01;37.29
9439;BME280;5176;42.622;25.386;2023-08-30T12:29:46;96122.69;;;32.86;37.36
9439;BME280;5176;42.622;25.386;2023-08-30T12:32:14;96132.41;;;32.77;37.87
9439;BME280;5176;42.622;25.386;2023-08-30T12:34:42;96124.50;;;32.70;37.82
9439;BME280;5176;42.622;25.386;2023-08-30T12:37:09;96120.69;;;32.66;37.88
9439;BME280;5176;42.622;25.386;2023-08-30T12:39:36;96112.28;;;32.68;37.93
9439;BME280;5176;42.622;25.386;2023-08-30T12:42:06;96117.16;;;32.66;37.62
9439;BME280;5176;42.622;25.386;2023-08-30T12:44:33;96122.56;;;32.61;38.62
9439;BME280;5176;42.622;25.386;2023-08-30T12:47:00;96107.09;;;32.61;37.05
9439;BME280;5176;42.622;25.386;2023-08-30T12:49:28;96104.66;;;32.60;37.26
9439;BME280;5176;42.622;25.386;2023-08-30T12:51:55;96096.22;;;32.61;37.18
9439;BME280;5176;42.622;25.386;2023-08-30T12:54:23;96095.69;;;32.59;36.86
9439;BME280;5176;42.622;25.386;2023-08-30T12:56:50;96092.72;;;32.61;36.86
9439;BME280;5176;42.622;25.386;2023-08-30T12:59:19;96078.09;;;32.67;36.47
9439;BME280;5176;42.622;25.386;2023-08-30T13:01:46;96080.84;;;32.77;36.35
9439;BME280;5176;42.622;25.386;2023-08-30T13:04:13;96086.50;;;32.75;35.63
9439;BME280;5176;42.622;25.386;2023-08-30T13:06:41;96076.56;;;32.91;35.34
9439;BME280;5176;42.622;25.386;2023-08-30T13:09:08;96085.00;;;33.10;35.50
9439;BME280;5176;42.622;25.386;2023-08-30T13:11:35;96082.03;;;33.17;35.13
9439;BME280;5176;42.622;25.386;2023-08-30T13:14:03;96090.22;;;33.27;35.36
9439;BME280;5176;42.622;25.386;2023-08-30T13:16:32;96082.59;;;33.34;35.08